EDT,Max TemperatureF,Mean TemperatureF,Min TemperatureF,Max Dew PointF,MeanDew PointF,Min DewpointF,Max Humidity, Mean Humidity, Min Humidity, Max Sea Level PressureIn, Mean Sea Level PressureIn, Min Sea Level PressureIn, Max VisibilityMiles, Mean VisibilityMiles, Min VisibilityMiles, Max Wind SpeedMPH, Mean Wind SpeedMPH, Max Gust SpeedMPH,PrecipitationIn, CloudCover, Events, WindDirDegrees
2013-8-1,80,68,56,62,58,55,93,69,45,30.04,29.98,29.90,10,10,10,20,5,24,0.00,3,,183
2013-8-2,71,64,57,64,62,57,97,88,78,29.90,29.82,29.75,10,7,2,14,7,18,0.74,7,Rain-Thunderstorm,176
2013-8-3,77,67,56,63,59,56,100,75,50,29.81,29.76,29.69,10,5,0,30,2,35,0.37,5,Fog-Rain-Thunderstorm,249
2013-8-4,78,66,54,59,56,52,93,68,43,29.79,29.75,29.70,10,10,10,18,4,24,T,4,Thunderstorm,266
2013-8-5,71,61,51,52,50,45,93,70,47,29.99,29.86,29.78,10,10,10,22,7,29,0.00,3,,281
2013-8-6,78,64,49,56,51,44,77,60,42,30.14,30.07,29.99,10,10,9,14,4,17,0.00,2,,230
2013-8-7,78,65,51,57,52,49,90,65,39,30.20,30.16,30.14,10,10,10,17,4,21,0.00,3,,186
2013-8-8,66,64,61,63,60,57,93,87,81,30.14,30.08,30.04,10,9,2,20,8,26,0.08,7,Rain,175
2013-8-9,72,69,65,70,65,63,100,95,90,30.04,29.89,29.70,7,3,0,18,6,26,1.72,8,Fog-Rain-Thunderstorm,171
2013-8-10,78,66,54,66,57,47,100,68,36,29.95,29.80,29.70,10,7,1,20,6,26,0.00,5,,271
2013-8-11,77,64,51,55,51,49,83,62,41,30.01,29.97,29.93,10,10,10,15,5,22,0.00,2,,255
2013-8-12,80,68,56,59,55,50,93,64,35,29.98,29.93,29.88,10,10,10,14,3,18,0.00,4,,215
2013-8-13,77,66,55,64,60,54,93,77,60,29.90,29.80,29.70,10,10,9,18,3,23,T,6,Fog-Rain,174
2013-8-14,75,66,56,66,60,46,93,70,46,29.83,29.65,29.59,10,7,2,17,7,26,0.35,6,Rain-Thunderstorm,197
2013-8-15,76,64,52,54,49,47,83,62,41,29.99,29.93,29.83,10,10,10,15,7,21,0.00,2,,247
2013-8-16,78,65,51,56,53,50,100,70,40,30.19,30.11,30.07,10,10,10,15,3,18,0.00,4,,174
2013-8-17,77,65,52,57,53,49,100,69,38,30.26,30.23,30.18,10,7,1,12,2,16,0.00,3,,309
2013-8-18,76,63,49,60,54,49,100,69,38,30.27,30.17,30.03,10,10,10,10,2,14,0.00,4,Fog,217
2013-8-19,84,69,53,62,59,52,100,72,44,30.02,29.91,29.83,10,10,10,16,4,24,0.00,3,Fog,257
2013-8-20,85,73,60,64,61,58,97,70,43,30.06,30.00,29.93,10,10,6,14,3,17,0.00,4,,220
2013-8-21,87,73,59,66,62,58,100,73,45,30.10,30.04,29.96,10,10,6,14,4,20,0.00,1,,203
2013-8-22,87,74,61,66,63,60,100,73,45,29.97,29.85,29.73,10,9,6,14,3,18,0.00,3,,205
2013-8-23,77,65,53,65,55,45,93,66,38,30.14,29.92,29.74,10,10,6,21,9,26,0.01,4,Rain,329
2013-8-24,78,62,45,52,46,42,93,61,29,30.29,30.25,30.16,10,10,10,14,4,20,0.00,1,,350
2013-8-25,78,62,46,54,50,45,93,63,33,30.35,30.25,30.14,10,10,10,10,2,17,0.00,2,,197
2013-8-26,75,68,61,64,60,51,93,81,68,30.12,29.95,29.85,10,10,8,7,5,,0.02,7,Rain,197
2013-8-27,86,72,58,65,63,57,93,69,45,29.90,29.87,29.83,10,9,3,8,2,15,0.00,5,Fog,187
2013-8-28,84,75,65,66,64,62,93,72,51,30.01,29.93,29.86,10,8,1,22,5,25,0.99,6,Rain-Thunderstorm,53
2013-8-29,67,61,54,64,57,51,93,78,63,30.15,30.08,30.01,10,9,3,17,8,22,0.04,6,Rain,36
2013-8-30,76,62,48,64,56,47,96,78,60,30.01,29.87,29.77,10,10,8,10,4,13,0.05,4,Rain,256
2013-8-31,79,72,65,67,65,63,100,84,67,29.84,29.80,29.76,10,7,2,12,2,20,0.32,8,Rain-Thunderstorm,171